Time;durP1;ratioP1;P1;durP2;ratioP2;P2;SDS_P1;SDS_P2;PMS_P1;PMS_P2;Temp;Humidity;BMP_temperature;BMP_pressure;BME280_temperature;BME280_humidity;BME280_pressure;Samples;Min_cycle;Max_cycle;Signal;HPM_P1;HPM_P2
2022/06/15 00:00:16;;;;;;;5.73;2.30;;;21.30;57.80;;;;;;5127247;27;20178;-94
2022/06/15 00:02:44;;;;;;;3.73;2.17;;;21.30;58.00;;;;;;5126604;27;20207;-94
2022/06/15 00:05:10;;;;;;;6.07;2.17;;;21.20;58.00;;;;;;5127126;27;20174;-93
2022/06/15 00:07:36;;;;;;;6.23;2.53;;;21.20;58.10;;;;;;5128602;27;20172;-94
2022/06/15 00:10:28;;;;;;;5.47;2.50;;;21.20;58.30;;;;;;5143833;27;20177;-95
2022/06/15 00:12:54;;;;;;;4.80;2.83;;;21.20;58.40;;;;;;5142795;27;20182;-94
2022/06/15 00:15:20;;;;;;;5.63;2.67;;;21.10;58.50;;;;;;5142545;27;20248;-94
2022/06/15 00:17:48;;;;;;;6.03;2.60;;;21.10;58.60;;;;;;5143075;27;20199;-95
2022/06/15 00:20:33;;;;;;;4.23;2.50;;;21.10;58.70;;;;;;5142168;27;20165;-94
2022/06/15 00:22:58;;;;;;;4.17;2.20;;;21.00;58.80;;;;;;5142248;27;20183;-94
2022/06/15 00:25:24;;;;;;;5.03;2.50;;;21.00;59.00;;;;;;5142644;27;20192;-95
2022/06/15 00:27:56;;;;;;;4.87;2.47;;;21.00;59.20;;;;;;5142718;27;20179;-94
2022/06/15 00:30:21;;;;;;;6.60;2.77;;;20.90;59.30;;;;;;5143087;27;20184;-94
2022/06/15 00:32:53;;;;;;;5.50;2.80;;;20.90;59.40;;;;;;5142961;27;20166;-95
2022/06/15 00:35:21;;;;;;;4.57;2.67;;;20.90;59.50;;;;;;5143268;27;20160;-93
2022/06/15 00:37:56;;;;;;;4.77;2.63;;;20.90;59.70;;;;;;5143079;27;20244;-95
2022/06/15 00:40:21;;;;;;;5.47;2.57;;;20.80;59.70;;;;;;5143141;27;20155;-94
2022/06/15 00:42:50;;;;;;;7.87;2.60;;;20.80;59.80;;;;;;5142491;27;20220;-94
2022/06/15 00:45:22;;;;;;;4.93;2.70;;;20.80;59.80;;;;;;5142678;27;20167;-94
2022/06/15 00:47:57;;;;;;;4.03;2.63;;;20.80;60.00;;;;;;5142905;27;20168;-94
2022/06/15 00:50:25;;;;;;;4.93;2.50;;;20.70;60.20;;;;;;5142653;27;20178;-94
2022/06/15 00:53:16;;;;;;;6.43;2.47;;;20.70;60.60;;;;;;5142366;27;20222;-95
2022/06/15 00:56:06;;;;;;;5.27;2.60;;;20.70;60.70;;;;;;5142642;27;20213;-94
2022/06/15 00:58:40;;;;;;;5.47;2.70;;;20.70;60.80;;;;;;5159788;27;20204;-95
2022/06/15 01:01:06;;;;;;;5.30;2.93;;;20.60;61.00;;;;;;5142566;27;20190;-94
2022/06/15 01:03:37;;;;;;;5.40;2.73;;;20.60;61.30;;;;;;5142516;27;20184;-93
2022/06/15 01:06:40;;;;;;;3.70;2.30;;;20.50;61.40;;;;;;5142892;27;20169;-94
2022/06/15 01:09:34;;;;;;;5.60;2.63;;;20.50;61.50;;;;;;5142942;27;20157;-94
2022/06/15 01:12:45;;;;;;;3.87;2.47;;;20.50;61.70;;;;;;5142544;27;20162;-94
2022/06/15 01:15:39;;;;;;;7.30;2.73;;;20.50;61.90;;;;;;5127120;27;20184;-93
2022/06/15 01:18:30;;;;;;;4.93;2.30;;;20.50;62.00;;;;;;5124378;27;20166;-93
2022/06/15 01:21:23;;;;;;;6.30;2.87;;;20.40;62.00;;;;;;5144262;27;20190;-94
2022/06/15 01:24:14;;;;;;;4.20;2.40;;;20.40;62.20;;;;;;5092880;27;20260;-93
2022/06/15 01:27:08;;;;;;;4.77;2.20;;;20.40;62.30;;;;;;5124484;27;20466;-93
2022/06/15 01:30:11;;;;;;;4.03;2.50;;;20.40;62.50;;;;;;5124714;27;20171;-94
2022/06/15 01:33:02;;;;;;;3.80;2.40;;;20.30;62.80;;;;;;5358763;22;20212;-94
2022/06/15 01:35:46;;;;;;;5.13;2.20;;;20.30;62.80;;;;;;5142346;27;20175;-94
2022/06/15 01:38:29;;;;;;;3.70;2.27;;;20.30;62.90;;;;;;5141924;27;20171;-93
2022/06/15 01:41:30;;;;;;;6.57;2.70;;;20.30;63.10;;;;;;5141885;27;20188;-94
2022/06/15 01:44:26;;;;;;;4.37;2.40;;;20.30;63.10;;;;;;5141646;27;20155;-94
2022/06/15 01:46:53;;;;;;;5.87;2.30;;;20.20;63.20;;;;;;5141112;28;20205;-94
2022/06/15 01:52:53;;;;;;;8.90;4.47;;;20.20;63.50;;;;;;5158626;27;20168;-95
2022/06/15 01:55:32;;;;;;;7.07;3.60;;;20.20;64.30;;;;;;5145276;27;20151;-94
2022/06/15 02:01:02;;;;;;;6.83;3.60;;;20.10;63.70;;;;;;5161938;27;20156;-94
2022/06/15 02:04:07;;;;;;;5.53;3.80;;;20.10;63.60;;;;;;5143276;27;20150;-94
2022/06/15 02:07:09;;;;;;;4.67;3.00;;;20.10;63.80;;;;;;5143727;27;20173;-94
2022/06/15 02:10:22;;;;;;;3.73;2.73;;;20.10;64.10;;;;;;5144310;27;20156;-95
2022/06/15 02:13:04;;;;;;;3.87;2.60;;;20.10;64.30;;;;;;5142981;27;20473;-94
2022/06/15 02:18:56;;;;;;;9.20;2.83;;;20.00;64.20;;;;;;5161361;27;20250;-94
2022/06/15 02:21:23;;;;;;;4.33;2.40;;;19.90;64.30;;;;;;5142566;27;20197;-94
2022/06/15 02:23:58;;;;;;;4.63;2.50;;;19.90;64.50;;;;;;5143470;27;20176;-93
2022/06/15 02:26:27;;;;;;;5.00;2.90;;;19.90;64.60;;;;;;5143770;27;20322;-93
2022/06/15 02:28:59;;;;;;;7.80;3.20;;;19.90;64.90;;;;;;5144546;27;20201;-94
2022/06/15 02:31:29;;;;;;;3.70;2.50;;;19.80;65.00;;;;;;5144732;27;20173;-93
2022/06/15 02:34:15;;;;;;;5.57;2.57;;;19.80;65.10;;;;;;5144549;27;20180;-94
2022/06/15 02:36:44;;;;;;;5.10;2.60;;;19.80;65.20;;;;;;5144136;27;20506;-95
2022/06/15 02:39:13;;;;;;;4.97;2.80;;;19.70;65.20;;;;;;5143619;27;20180;-94
2022/06/15 02:42:22;;;;;;;4.03;2.50;;;19.70;65.30;;;;;;5143273;27;20236;-95
2022/06/15 02:45:08;;;;;;;6.17;3.37;;;19.70;65.50;;;;;;5142757;27;20151;-94
2022/06/15 02:47:38;;;;;;;5.63;2.70;;;19.70;65.80;;;;;;5143776;27;20175;-94
2022/06/15 02:50:20;;;;;;;4.13;2.80;;;19.60;66.00;;;;;;5142943;27;20181;-93
2022/06/15 02:52:59;;;;;;;7.37;2.80;;;19.60;66.20;;;;;;5141380;27;20203;-94
2022/06/15 02:55:35;;;;;;;8.50;3.20;;;19.60;66.40;;;;;;5140960;27;20161;-94
2022/06/15 02:58:48;;;;;;;8.97;2.97;;;19.60;66.40;;;;;;5140997;27;20178;-94
2022/06/15 03:01:14;;;;;;;7.70;2.93;;;19.60;66.70;;;;;;5141851;27;20193;-94
2022/06/15 03:03:43;;;;;;;6.70;3.10;;;19.60;66.60;;;;;;5141721;27;20175;-94
2022/06/15 03:06:20;;;;;;;5.73;2.77;;;19.50;66.70;;;;;;5140910;27;20158;-94
2022/06/15 03:08:48;;;;;;;7.57;2.90;;;19.50;66.80;;;;;;5141571;27;20170;-94
2022/06/15 03:11:14;;;;;;;6.43;3.27;;;19.50;67.10;;;;;;5140456;27;20183;-94
2022/06/15 03:14:28;;;;;;;5.77;3.10;;;19.50;67.10;;;;;;5140535;27;20269;-94
2022/06/15 03:16:57;;;;;;;6.50;3.30;;;19.50;67.20;;;;;;5140830;27;20166;-94
2022/06/15 03:19:22;;;;;;;6.33;3.37;;;19.50;67.40;;;;;;5139986;27;20195;-94
2022/06/15 03:21:51;;;;;;;7.30;3.23;;;19.40;67.60;;;;;;5140008;27;20308;-94
2022/06/15 03:27:29;;;;;;;4.37;3.37;;;19.40;67.80;;;;;;5141169;27;20554;-94
2022/06/15 03:30:07;;;;;;;5.67;3.20;;;19.30;68.10;;;;;;5140620;27;20173;-94
2022/06/15 03:32:39;;;;;;;5.17;3.00;;;19.30;68.20;;;;;;5140071;27;20169;-94
2022/06/15 03:35:14;;;;;;;3.90;2.87;;;19.30;68.30;;;;;;5140148;27;20202;-94
2022/06/15 03:37:45;;;;;;;5.93;2.97;;;19.30;68.40;;;;;;5140020;27;20217;-94
2022/06/15 03:40:26;;;;;;;5.03;3.30;;;19.30;68.50;;;;;;5140353;27;20173;-94
2022/06/15 03:42:51;;;;;;;5.70;2.90;;;19.30;68.60;;;;;;5140550;27;20218;-94
2022/06/15 03:45:17;;;;;;;5.73;3.00;;;19.30;68.70;;;;;;5140143;27;20167;-94
2022/06/15 03:47:43;;;;;;;6.00;3.20;;;19.30;68.70;;;;;;5139569;27;20176;-94
2022/06/15 03:50:15;;;;;;;6.73;3.30;;;19.30;68.80;;;;;;5139842;27;20195;-94
2022/06/15 03:52:41;;;;;;;9.67;3.53;;;19.30;68.90;;;;;;5140487;27;20170;-94
2022/06/15 03:55:07;;;;;;;8.67;3.80;;;19.30;68.80;;;;;;5140522;27;20535;-94
2022/06/15 03:57:35;;;;;;;5.30;3.53;;;19.30;69.00;;;;;;5140022;27;20249;-94
2022/06/15 04:00:30;;;;;;;5.40;3.23;;;19.30;69.00;;;;;;5139256;27;20180;-94
2022/06/15 04:02:55;;;;;;;5.70;3.50;;;19.30;69.30;;;;;;5138911;27;20206;-94
2022/06/15 04:05:31;;;;;;;6.27;3.30;;;19.30;69.50;;;;;;5138717;27;20255;-94
2022/06/15 04:11:06;;;;;;;5.40;3.13;;;19.30;69.60;;;;;;5157120;27;20175;-95
2022/06/15 04:13:33;;;;;;;6.07;3.20;;;19.30;69.60;;;;;;5138839;27;20271;-94
2022/06/15 04:16:02;;;;;;;6.60;3.87;;;19.30;70.00;;;;;;5139735;27;20223;-94
2022/06/15 04:18:28;;;;;;;6.00;3.70;;;19.30;70.00;;;;;;5139867;27;20177;-95
2022/06/15 04:21:23;;;;;;;6.53;4.03;;;19.30;70.30;;;;;;5140109;27;20174;-94
2022/06/15 04:23:49;;;;;;;5.40;3.77;;;19.30;70.80;;;;;;5120402;27;20169;-93
2022/06/15 04:26:27;;;;;;;6.90;3.60;;;19.40;70.30;;;;;;5119308;27;20292;-93
2022/06/15 04:29:08;;;;;;;4.97;3.40;;;19.40;70.70;;;;;;5118716;27;20177;-92
2022/06/15 04:31:42;;;;;;;6.50;3.83;;;19.40;70.00;;;;;;5119404;27;20461;-93
2022/06/15 04:34:09;;;;;;;6.57;3.47;;;19.50;69.60;;;;;;5119132;27;20207;-93
2022/06/15 04:36:39;;;;;;;5.57;3.30;;;19.50;70.00;;;;;;5118536;27;20174;-93
2022/06/15 04:39:08;;;;;;;6.10;3.30;;;19.60;69.30;;;;;;5119270;27;20174;-93
2022/06/15 04:41:37;;;;;;;5.73;3.40;;;19.60;69.30;;;;;;5118849;27;20299;-93
2022/06/15 04:44:08;;;;;;;5.67;3.40;;;19.60;69.20;;;;;;5119046;27;20252;-93
2022/06/15 04:46:34;;;;;;;7.67;3.70;;;19.70;69.10;;;;;;5119598;27;20170;-93
2022/06/15 04:49:05;;;;;;;8.03;3.67;;;19.70;68.90;;;;;;5118559;27;20330;-93
2022/06/15 04:51:41;;;;;;;4.60;3.10;;;19.80;68.00;;;;;;5119502;27;20246;-92
2022/06/15 04:54:10;;;;;;;6.90;3.13;;;19.90;67.40;;;;;;5117138;27;20169;-93
2022/06/15 04:56:38;;;;;;;4.53;3.60;;;19.90;67.00;;;;;;5119033;27;20181;-93
2022/06/15 04:59:04;;;;;;;5.07;2.33;;;20.00;66.50;;;;;;5123142;27;20203;-93
2022/06/15 05:01:30;;;;;;;7.50;3.57;;;20.10;66.30;;;;;;5139869;27;20609;-93
2022/06/15 05:03:55;;;;;;;3.70;2.20;;;20.20;66.00;;;;;;5122163;27;20449;-93
2022/06/15 05:06:24;;;;;;;4.13;2.60;;;20.20;65.80;;;;;;5123903;27;20178;-93
2022/06/15 05:08:52;;;;;;;3.17;2.10;;;20.30;65.70;;;;;;5123636;27;20200;-93
2022/06/15 05:11:18;;;;;;;2.57;1.90;;;20.40;65.10;;;;;;5124549;27;20304;-93
2022/06/15 05:13:44;;;;;;;2.30;1.80;;;20.40;65.50;;;;;;5122786;27;20300;-94
2022/06/15 05:16:12;;;;;;;3.50;1.97;;;20.40;65.20;;;;;;5123106;27;20176;-93
2022/06/15 05:18:40;;;;;;;6.53;3.50;;;20.50;64.70;;;;;;5126262;27;20175;-94
2022/06/15 05:21:08;;;;;;;4.23;2.33;;;20.60;65.50;;;;;;5124902;27;20610;-94
2022/06/15 05:23:36;;;;;;;4.93;2.50;;;20.60;64.20;;;;;;5127098;27;20188;-93
2022/06/15 05:26:02;;;;;;;6.37;2.33;;;20.70;63.80;;;;;;5124935;27;20204;-94
2022/06/15 05:28:28;;;;;;;3.20;2.37;;;20.80;64.20;;;;;;5124499;27;20181;-94
2022/06/15 05:31:21;;;;;;;3.03;1.90;;;20.90;63.70;;;;;;5139306;27;20168;-94
2022/06/15 05:33:53;;;;;;;2.07;1.70;;;21.00;62.40;;;;;;5139972;28;20189;-95
2022/06/15 05:36:21;;;;;;;3.87;1.70;;;21.00;62.30;;;;;;5140812;27;20181;-94
2022/06/15 05:38:50;;;;;;;5.33;1.63;;;21.10;61.60;;;;;;5141012;27;20243;-94
2022/06/15 05:44:53;;;;;;;3.37;1.70;;;21.30;60.60;;;;;;5158971;27;20211;-94
2022/06/15 05:47:24;;;;;;;3.07;2.03;;;21.40;60.00;;;;;;5141160;27;20225;-94
2022/06/15 05:49:50;;;;;;;3.20;2.20;;;21.60;59.70;;;;;;5140709;28;20166;-94
2022/06/15 05:52:16;;;;;;;5.60;2.30;;;21.70;59.30;;;;;;5140627;28;20188;-95
2022/06/15 05:54:48;;;;;;;5.97;2.20;;;21.70;59.10;;;;;;5139795;28;20166;-94
2022/06/15 05:57:19;;;;;;;4.03;2.10;;;21.80;58.70;;;;;;5140216;28;20162;-94
2022/06/15 06:00:09;;;;;;;4.93;3.13;;;21.90;58.40;;;;;;5140061;28;20150;-94
2022/06/15 06:02:35;;;;;;;6.00;3.73;;;22.10;58.50;;;;;;5141401;27;20197;-95
2022/06/15 06:05:00;;;;;;;6.13;3.00;;;22.20;58.40;;;;;;5141973;28;20196;-92
2022/06/15 06:07:26;;;;;;;3.90;2.07;;;22.30;57.70;;;;;;5142456;27;20238;-94
2022/06/15 06:09:52;;;;;;;3.30;2.00;;;22.40;57.20;;;;;;5142248;27;20193;-94
2022/06/15 06:12:18;;;;;;;3.90;2.17;;;22.70;56.60;;;;;;5142357;27;20194;-94
2022/06/15 06:14:44;;;;;;;3.90;2.20;;;23.10;55.80;;;;;;5142139;27;20187;-94
2022/06/15 06:27:23;;;;;;;4.00;2.20;;;24.50;52.30;;;;;;5159744;27;20179;-94
2022/06/15 06:29:51;;;;;;;6.13;2.20;;;24.80;51.80;;;;;;5142063;27;20178;-94
2022/06/15 06:32:17;;;;;;;4.70;2.37;;;24.90;51.60;;;;;;5142058;27;20189;-93
2022/06/15 06:34:43;;;;;;;3.93;2.20;;;24.90;51.30;;;;;;5141836;28;20184;-94
2022/06/15 06:37:16;;;;;;;4.27;2.33;;;25.00;51.10;;;;;;5131558;28;20181;-94
2022/06/15 06:39:44;;;;;;;4.23;2.83;;;25.10;50.90;;;;;;5120754;27;20269;-94
2022/06/15 06:42:11;;;;;;;4.20;2.23;;;25.20;50.70;;;;;;5122473;27;20223;-94
2022/06/15 06:44:36;;;;;;;6.07;2.43;;;25.40;50.50;;;;;;5126305;27;20249;-93
2022/06/15 06:47:05;;;;;;;4.50;2.67;;;25.50;50.30;;;;;;5122544;27;20570;-94
2022/06/15 06:49:33;;;;;;;3.90;2.57;;;25.60;50.10;;;;;;5122855;27;20169;-94
2022/06/15 06:52:02;;;;;;;7.07;3.30;;;25.70;49.90;;;;;;5123525;27;20181;-93
2022/06/15 06:54:27;;;;;;;6.93;4.10;;;25.80;49.80;;;;;;5122071;27;20237;-94
2022/06/15 06:56:56;;;;;;;4.60;2.50;;;25.80;50.30;;;;;;5120956;27;20181;-94
2022/06/15 06:59:22;;;;;;;7.13;2.67;;;25.90;49.70;;;;;;5118704;27;20182;-94
2022/06/15 07:01:48;;;;;;;5.23;3.17;;;26.00;49.60;;;;;;5118568;27;20198;-93
2022/06/15 07:04:15;;;;;;;5.00;2.60;;;26.10;49.50;;;;;;5118368;27;20185;-94
2022/06/15 07:06:42;;;;;;;5.13;2.50;;;26.20;49.30;;;;;;5118451;27;20230;-93
2022/06/15 07:09:08;;;;;;;5.43;2.80;;;26.30;49.20;;;;;;5125540;27;20166;-94
2022/06/15 07:11:34;;;;;;;5.68;3.10;;;26.40;49.10;;;;;;5119496;27;20169;-94
2022/06/15 07:14:02;;;;;;;5.28;2.95;;;26.40;49.00;;;;;;5121055;27;20177;-95
2022/06/15 07:16:35;;;;;;;5.10;2.55;;;26.50;48.90;;;;;;5123312;27;20330;-94
2022/06/15 07:19:01;;;;;;;5.30;2.72;;;26.50;48.70;;;;;;5124622;27;20193;-94
2022/06/15 07:21:27;;;;;;;4.75;2.90;;;26.60;48.80;;;;;;5125781;27;20204;-95
2022/06/15 07:23:55;;;;;;;4.18;2.80;;;26.60;48.70;;;;;;5118672;27;20162;-94
2022/06/15 07:26:26;;;;;;;3.97;2.60;;;26.70;48.70;;;;;;5118555;27;20593;-94
2022/06/15 07:28:58;;;;;;;4.53;2.63;;;26.80;48.70;;;;;;5117249;27;20261;-94
2022/06/15 07:31:33;;;;;;;5.57;2.83;;;26.80;48.70;;;;;;5119380;27;20176;-94
2022/06/15 07:34:00;;;;;;;5.15;2.83;;;26.80;48.70;;;;;;5117385;27;20562;-95
2022/06/15 07:36:26;;;;;;;6.28;3.13;;;26.90;48.60;;;;;;5118467;27;20429;-95
2022/06/15 07:38:53;;;;;;;4.43;2.67;;;27.00;48.60;;;;;;5117736;27;20174;-95
2022/06/15 07:41:21;;;;;;;6.50;2.80;;;27.00;48.40;;;;;;5120316;27;20205;-95
2022/06/15 07:43:47;;;;;;;5.85;2.80;;;27.00;48.30;;;;;;5125292;27;20201;-95
2022/06/15 07:46:13;;;;;;;5.65;3.33;;;27.10;48.60;;;;;;5132967;27;20169;-95
2022/06/15 07:51:34;;;;;;;5.68;2.97;;;27.10;48.60;;;;;;5147467;27;20181;-95
2022/06/15 07:54:09;;;;;;;3.60;2.78;;;27.20;48.40;;;;;;5134379;27;20433;-96
2022/06/15 07:56:38;;;;;;;5.10;2.97;;;27.20;48.50;;;;;;5130995;27;20258;-95
2022/06/15 07:59:04;;;;;;;4.05;3.03;;;27.20;48.50;;;;;;5136237;27;20157;-95
2022/06/15 08:01:36;;;;;;;4.53;2.90;;;27.20;48.40;;;;;;5133274;27;20197;-95
2022/06/15 08:04:02;;;;;;;6.13;2.72;;;27.20;48.50;;;;;;5133166;27;20158;-95
2022/06/15 08:06:29;;;;;;;6.07;3.00;;;27.20;48.60;;;;;;5135849;27;20193;-96
2022/06/15 08:08:58;;;;;;;5.20;2.85;;;27.30;48.50;;;;;;5131319;27;20188;-96
2022/06/15 08:11:25;;;;;;;3.45;2.50;;;27.20;48.60;;;;;;5129863;27;20169;-96
2022/06/15 08:13:52;;;;;;;4.95;2.63;;;27.40;48.70;;;;;;5120528;27;20202;-95
2022/06/15 08:16:19;;;;;;;5.10;2.83;;;27.40;48.60;;;;;;5122090;27;20342;-95
2022/06/15 08:18:52;;;;;;;3.85;2.67;;;27.40;48.50;;;;;;5119242;27;20165;-95
2022/06/15 08:21:22;;;;;;;3.97;2.58;;;27.40;48.50;;;;;;5120974;27;20196;-94
2022/06/15 08:23:50;;;;;;;4.18;2.78;;;27.50;48.60;;;;;;5119178;27;20189;-93
2022/06/15 08:26:27;;;;;;;7.00;3.20;;;27.50;48.50;;;;;;5116237;27;20169;-94
2022/06/15 08:28:56;;;;;;;5.47;2.70;;;27.60;48.40;;;;;;5115413;27;20190;-95
2022/06/15 08:31:25;;;;;;;4.05;2.63;;;27.60;48.50;;;;;;5115749;27;20165;-94
2022/06/15 08:33:53;;;;;;;;;;;27.70;48.20;;;;;;5116630;27;19911;-94
2022/06/15 08:36:21;;;;;;;;;;;27.80;48.40;;;;;;5118820;27;20137;-95
2022/06/15 08:38:47;;;;;;;;;;;27.70;48.40;;;;;;5122219;27;19918;-95
2022/06/15 08:41:13;;;;;;;;;;;27.80;48.80;;;;;;5119888;27;19982;-95
2022/06/15 08:43:57;;;;;;;;;;;27.80;48.40;;;;;;5118091;27;19926;-95
2022/06/15 08:46:30;;;;;;;;;;;27.80;48.50;;;;;;5125376;27;20157;-96
2022/06/15 08:49:05;;;;;;;;;;;27.80;48.50;;;;;;5120916;27;19908;-95
2022/06/15 08:51:38;;;;;;;;;;;27.90;48.50;;;;;;5133074;27;19926;-96
2022/06/15 08:54:19;;;;;;;;;;;27.90;48.60;;;;;;5138647;27;19912;-94
2022/06/15 08:56:52;;;;;;;;;;;28.00;48.60;;;;;;5137721;27;19910;-94
2022/06/15 08:59:32;;;;;;;;;;;28.00;48.50;;;;;;5133838;27;19918;-94
2022/06/15 09:02:22;;;;;;;5.10;2.50;;;28.10;48.50;;;;;;5136785;27;19902;-94
2022/06/15 09:05:14;;;;;;;4.75;2.40;;;28.10;48.50;;;;;;5137027;27;20165;-94
2022/06/15 09:08:00;;;;;;;5.20;2.30;;;28.10;48.50;;;;;;5139280;27;20173;-93
2022/06/15 09:10:49;;;;;;;3.72;2.35;;;28.10;48.50;;;;;;5138710;27;20275;-94
2022/06/15 09:13:44;;;;;;;3.58;2.20;;;28.10;48.40;;;;;;5139220;27;20266;-94
2022/06/15 09:16:31;;;;;;;4.22;2.15;;;28.10;48.50;;;;;;5140063;27;20188;-94
2022/06/15 09:19:31;;;;;;;3.42;2.05;;;28.10;48.60;;;;;;5140298;27;20173;-94
2022/06/15 09:22:06;;;;;;;3.80;2.00;;;28.10;48.50;;;;;;5139015;27;20198;-94
2022/06/15 09:28:10;;;;;;;3.60;2.20;;;28.20;48.60;;;;;;5150789;27;20168;-93
2022/06/15 09:30:40;;;;;;;2.65;2.00;;;28.20;48.60;;;;;;5133540;27;20173;-94
2022/06/15 09:33:28;;;;;;;3.58;2.25;;;28.20;48.70;;;;;;5135246;27;20157;-94
2022/06/15 09:36:07;;;;;;;3.03;2.00;;;28.20;48.60;;;;;;5139249;28;20181;-93
2022/06/15 09:39:16;;;;;;;3.40;2.17;;;28.20;48.60;;;;;;5138573;28;20173;-94
2022/06/15 09:41:50;;;;;;;5.90;2.25;;;28.20;48.80;;;;;;5137214;27;20198;-93
2022/06/15 09:44:27;;;;;;;3.45;2.08;;;28.30;48.60;;;;;;5137042;28;20176;-94
2022/06/15 09:50:25;;;;;;;4.53;2.35;;;28.40;48.60;;;;;;5157120;27;20167;-94
2022/06/15 09:53:20;;;;;;;4.30;2.20;;;28.40;48.70;;;;;;5139587;28;20177;-94
2022/06/15 09:55:51;;;;;;;4.20;2.10;;;28.40;48.70;;;;;;5139436;28;20173;-94
2022/06/15 09:58:20;;;;;;;2.90;2.10;;;28.40;48.80;;;;;;5140878;27;20153;-94
2022/06/15 10:00:49;;;;;;;4.57;2.05;;;28.40;48.80;;;;;;5141324;27;20180;-94
2022/06/15 10:03:23;;;;;;;3.55;1.80;;;28.40;48.80;;;;;;5140342;27;20256;-94
2022/06/15 10:05:51;;;;;;;2.67;1.88;;;28.40;48.90;;;;;;5138415;27;20176;-96
2022/06/15 10:08:17;;;;;;;2.97;2.10;;;28.30;48.90;;;;;;5133800;28;20166;-96
2022/06/15 10:11:15;;;;;;;3.67;2.08;;;28.30;49.00;;;;;;5132195;27;20437;-96
2022/06/15 10:13:44;;;;;;;4.72;2.10;;;28.30;49.00;;;;;;5133376;27;20166;-95
2022/06/15 10:16:19;;;;;;;2.55;1.83;;;28.30;49.10;;;;;;5133093;27;20166;-96
2022/06/15 10:18:49;;;;;;;3.05;1.95;;;28.30;49.30;;;;;;5136622;27;20188;-95
2022/06/15 10:21:14;;;;;;;3.40;2.10;;;28.30;49.40;;;;;;5138979;27;20448;-95
2022/06/15 10:23:47;;;;;;;3.45;2.35;;;28.20;49.30;;;;;;5138688;27;20190;-96
2022/06/15 10:29:38;;;;;;;4.13;2.10;;;28.20;49.30;;;;;;5162260;27;20184;-96
2022/06/15 10:32:10;;;;;;;3.97;2.22;;;28.20;49.30;;;;;;5144559;27;20162;-96
2022/06/15 10:34:45;;;;;;;5.72;2.20;;;28.20;49.50;;;;;;5143494;27;20197;-95
2022/06/15 10:37:20;;;;;;;3.58;1.90;;;28.20;49.40;;;;;;5144990;27;20180;-96
2022/06/15 10:39:55;;;;;;;4.07;1.85;;;28.20;49.50;;;;;;5145550;27;20172;-96
2022/06/15 10:42:38;;;;;;;6.60;2.15;;;28.10;49.50;;;;;;5143765;27;20205;-95
2022/06/15 10:45:27;;;;;;;4.78;2.00;;;28.10;49.60;;;;;;5141937;27;20169;-95
2022/06/15 10:48:00;;;;;;;3.88;1.80;;;28.10;49.70;;;;;;5104791;27;20184;-95
2022/06/15 10:50:37;;;;;;;3.35;1.90;;;28.10;49.80;;;;;;5140732;27;20150;-95
2022/06/15 10:53:21;;;;;;;3.08;1.88;;;28.10;49.90;;;;;;5143563;27;20233;-95
2022/06/15 11:02:14;;;;;;;3.25;1.80;;;28.00;50.10;;;;;;5159942;27;20652;-96
2022/06/15 11:05:23;;;;;;;3.42;1.95;;;28.00;50.20;;;;;;5144097;27;20156;-96
2022/06/15 11:14:35;;;;;;;4.33;2.10;;;27.90;50.10;;;;;;5120365;28;20201;-95
2022/06/15 11:33:28;;;;;;;3.70;1.77;;;27.60;52.10;;;;;;5079313;28;20211;-96
2022/06/15 11:36:17;;;;;;;6.10;2.00;;;27.50;52.30;;;;;;5063096;28;20175;-96
2022/06/15 11:39:00;;;;;;;4.60;2.20;;;27.40;50.00;;;;;;5062881;28;20165;-95
2022/06/15 11:45:16;;;;;;;3.93;1.70;;;27.50;50.90;;;;;;5099470;28;20208;-95
2022/06/15 11:47:54;;;;;;;3.43;1.93;;;27.60;51.30;;;;;;5099141;28;20156;-95
2022/06/15 11:50:34;;;;;;;5.53;3.03;;;27.60;51.30;;;;;;5082345;28;20155;-95
2022/06/15 11:57:02;;;;;;;7.93;3.20;;;27.60;49.80;;;;;;5099449;28;20142;-95
2022/06/15 11:59:49;;;;;;;3.27;2.17;;;27.50;47.80;;;;;;5091856;27;20191;-96
2022/06/15 12:09:36;;;;;;;6.10;2.30;;;27.60;50.80;;;;;;5119735;28;20162;-96
2022/06/15 12:15:16;;;;;;;4.47;1.83;;;27.50;50.60;;;;;;5119344;28;20165;-96
2022/06/15 12:21:16;;;;;;;3.87;2.10;;;27.50;51.10;;;;;;5118719;28;20186;-95
2022/06/15 12:23:50;;;;;;;6.03;2.53;;;27.50;51.20;;;;;;5102449;28;20186;-96
2022/06/15 12:30:28;;;;;;;8.20;3.00;;;27.50;48.70;;;;;;5110832;28;20174;-94
2022/06/15 12:46:32;;;;;;;4.80;2.17;;;27.60;51.00;;;;;;5160571;27;20149;-95
2022/06/15 12:49:29;;;;;;;3.53;2.13;;;27.60;50.80;;;;;;5141443;27;20177;-96
2022/06/15 12:52:13;;;;;;;4.33;2.20;;;27.60;51.00;;;;;;5142222;27;20178;-95
2022/06/15 13:18:47;;;;;;;2.03;1.60;;;27.60;51.70;;;;;;5160539;27;20213;-95
2022/06/15 13:21:15;;;;;;;4.77;2.00;;;27.70;51.30;;;;;;5140714;27;20166;-95
2022/06/15 13:27:41;;;;;;;6.70;2.20;;;27.60;51.00;;;;;;5077724;28;20231;-95
2022/06/15 13:30:31;;;;;;;2.90;1.70;;;27.60;48.40;;;;;;5130195;27;20178;-95
2022/06/15 13:46:31;;;;;;;6.07;3.27;;;27.70;48.30;;;;;;5160110;27;20176;-96
2022/06/15 13:49:28;;;;;;;9.77;3.03;;;27.60;46.40;;;;;;5140377;27;20174;-96
2022/06/15 13:52:04;;;;;;;4.10;2.10;;;27.60;46.40;;;;;;5141653;27;20178;-96
2022/06/15 13:55:04;;;;;;;3.80;2.53;;;27.50;48.70;;;;;;5141397;27;20236;-96
2022/06/15 13:57:49;;;;;;;6.73;2.43;;;27.60;48.20;;;;;;5141507;27;20233;-96
2022/06/15 14:00:25;;;;;;;4.70;1.87;;;27.60;48.20;;;;;;5141497;27;20204;-96
2022/06/15 14:03:16;;;;;;;2.90;1.90;;;27.60;47.80;;;;;;5141306;27;20193;-95
2022/06/15 14:09:24;;;;;;;3.23;1.80;;;27.60;47.40;;;;;;5158781;27;20161;-96
2022/06/15 14:12:08;;;;;;;7.97;2.67;;;27.70;49.90;;;;;;5140751;27;20154;-96
2022/06/15 14:14:54;;;;;;;3.40;1.80;;;27.70;47.80;;;;;;5141137;27;20174;-95
2022/06/15 14:17:41;;;;;;;7.67;3.17;;;27.70;50.00;;;;;;5141167;27;20161;-96
2022/06/15 14:20:11;;;;;;;2.10;1.77;;;27.70;47.10;;;;;;5140021;27;20154;-95
2022/06/15 14:22:52;;;;;;;5.03;1.70;;;27.70;49.20;;;;;;5139715;27;20201;-96
2022/06/15 14:28:52;;;;;;;2.20;1.70;;;27.70;47.80;;;;;;5158803;27;20167;-95
2022/06/15 14:31:21;;;;;;;8.00;2.43;;;27.70;50.70;;;;;;5141038;27;20166;-95
2022/06/15 14:33:58;;;;;;;2.83;1.90;;;27.70;47.70;;;;;;5141043;27;20161;-96
2022/06/15 14:39:54;;;;;;;3.20;1.90;;;27.70;50.80;;;;;;5158653;27;20165;-96
2022/06/15 14:42:53;;;;;;;2.00;1.70;;;27.70;50.40;;;;;;5140921;27;20193;-95
2022/06/15 14:45:17;;;;;;;2.87;1.70;;;27.70;50.80;;;;;;5158371;27;20157;-96
2022/06/15 14:51:05;;;;;;;7.60;2.60;;;27.80;51.30;;;;;;5159381;27;20168;-95
2022/06/15 14:53:31;;;;;;;3.53;1.90;;;27.70;49.50;;;;;;5141758;27;20170;-96
2022/06/15 14:56:03;;;;;;;2.20;1.70;;;27.80;48.40;;;;;;5141739;27;20189;-96
2022/06/15 14:58:29;;;;;;;6.00;2.30;;;27.80;50.40;;;;;;5141640;27;20202;-96
2022/06/15 15:01:13;;;;;;;4.10;2.40;;;27.80;49.10;;;;;;5143728;27;20162;-95
2022/06/15 15:03:41;;;;;;;6.13;2.40;;;27.80;46.10;;;;;;5145321;27;20236;-95
2022/06/15 15:12:54;;;;;;;3.83;1.73;;;27.80;50.20;;;;;;5162993;27;20169;-95
2022/06/15 15:15:20;;;;;;;4.07;1.70;;;27.80;49.90;;;;;;5145247;27;20173;-96
2022/06/15 15:18:08;;;;;;;5.03;2.20;;;27.80;47.70;;;;;;5145145;27;20161;-95
2022/06/15 15:20:38;;;;;;;5.67;2.40;;;27.90;48.10;;;;;;5145130;27;20248;-96
2022/06/15 15:23:04;;;;;;;6.37;2.97;;;27.90;47.00;;;;;;5145033;27;20197;-95
2022/06/15 15:25:43;;;;;;;1.80;1.70;;;27.90;47.90;;;;;;5144988;27;20165;-96
2022/06/15 15:35:01;;;;;;;5.47;2.07;;;27.90;50.40;;;;;;5162603;27;20168;-96
2022/06/15 15:37:35;;;;;;;12.33;9.33;;;27.90;50.80;;;;;;5144654;27;20170;-95
2022/06/15 15:40:02;;;;;;;1.93;1.57;;;27.90;48.40;;;;;;5144711;27;20229;-95
2022/06/15 15:42:29;;;;;;;4.43;2.80;;;27.80;50.50;;;;;;5144608;27;20193;-94
2022/06/15 15:44:54;;;;;;;6.73;2.50;;;27.80;47.00;;;;;;5144731;27;20242;-94
2022/06/15 15:47:20;;;;;;;3.77;2.10;;;27.80;45.80;;;;;;5144436;27;20181;-96
2022/06/15 15:49:47;;;;;;;4.47;2.10;;;27.80;45.80;;;;;;5144557;27;20177;-96
2022/06/15 15:52:16;;;;;;;2.87;1.60;;;27.80;48.60;;;;;;5144528;27;20193;-95
2022/06/15 15:54:42;;;;;;;2.63;1.87;;;27.80;50.10;;;;;;5144145;27;20169;-96
2022/06/15 15:57:12;;;;;;;6.27;2.03;;;27.80;49.40;;;;;;5144298;27;20199;-96
2022/06/15 15:59:40;;;;;;;2.83;1.73;;;27.80;50.00;;;;;;5144369;27;20237;-96
2022/06/15 16:16:00;;;;;;;2.20;1.60;;;27.80;47.10;;;;;;5161514;27;20230;-95
2022/06/15 16:18:27;;;;;;;5.23;2.03;;;27.80;50.10;;;;;;5143928;27;20153;-95
2022/06/15 16:20:55;;;;;;;4.47;2.20;;;27.80;50.00;;;;;;5143918;27;20161;-95
2022/06/15 16:23:25;;;;;;;2.27;1.73;;;27.80;49.10;;;;;;5143714;27;20197;-96
2022/06/15 16:29:14;;;;;;;3.27;2.43;;;27.80;51.10;;;;;;5161491;27;20160;-95
2022/06/15 16:31:40;;;;;;;5.07;2.33;;;27.80;47.90;;;;;;5143669;27;20158;-96
2022/06/15 16:34:08;;;;;;;4.03;2.03;;;27.80;46.60;;;;;;5143613;27;20187;-96
2022/06/15 16:36:35;;;;;;;2.90;1.90;;;27.70;47.00;;;;;;5143526;27;20225;-95
2022/06/15 16:45:54;;;;;;;3.20;2.33;;;27.80;51.20;;;;;;5160644;27;20145;-96
2022/06/15 16:48:20;;;;;;;2.87;1.87;;;27.80;48.60;;;;;;5139352;22;20228;-10
2022/06/15 16:50:45;;;;;;;2.53;1.60;;;27.70;50.90;;;;;;5128780;27;20615;-10